sensor_id;sensor_type;location;lat;lon;timestamp;P1;durP1;ratioP1;P2;durP2;ratioP2
14738;SDS011;7461;52.440;13.540;2022-12-04T00:02:18;91.45;;;73.13;;
14738;SDS011;7461;52.440;13.540;2022-12-04T00:04:46;86.43;;;72.93;;
14738;SDS011;7461;52.440;13.540;2022-12-04T00:07:14;81.93;;;65.15;;
14738;SDS011;7461;52.440;13.540;2022-12-04T00:09:40;87.60;;;71.28;;
14738;SDS011;7461;52.440;13.540;2022-12-04T00:12:08;87.18;;;73.90;;
14738;SDS011;7461;52.440;13.540;2022-12-04T00:14:35;87.63;;;73.55;;
14738;SDS011;7461;52.440;13.540;2022-12-04T00:17:02;81.07;;;69.57;;
14738;SDS011;7461;52.440;13.540;2022-12-04T00:19:30;83.75;;;71.13;;
14738;SDS011;7461;52.440;13.540;2022-12-04T00:21:57;91.22;;;74.20;;
14738;SDS011;7461;52.440;13.540;2022-12-04T00:24:24;90.50;;;73.10;;
14738;SDS011;7461;52.440;13.540;2022-12-04T00:26:52;97.03;;;73.40;;
14738;SDS011;7461;52.440;13.540;2022-12-04T00:29:19;93.00;;;73.57;;
14738;SDS011;7461;52.440;13.540;2022-12-04T00:31:46;91.85;;;73.88;;
14738;SDS011;7461;52.440;13.540;2022-12-04T00:34:13;91.60;;;75.10;;
14738;SDS011;7461;52.440;13.540;2022-12-04T00:36:42;97.68;;;74.57;;
14738;SDS011;7461;52.440;13.540;2022-12-04T00:39:09;91.20;;;72.45;;
14738;SDS011;7461;52.440;13.540;2022-12-04T00:41:36;90.40;;;75.20;;
14738;SDS011;7461;52.440;13.540;2022-12-04T00:44:03;91.22;;;71.35;;
14738;SDS011;7461;52.440;13.540;2022-12-04T00:46:30;103.13;;;77.35;;
14738;SDS011;7461;52.440;13.540;2022-12-04T00:48:57;93.38;;;71.53;;
14738;SDS011;7461;52.440;13.540;2022-12-04T00:51:26;95.10;;;78.70;;
14738;SDS011;7461;52.440;13.540;2022-12-04T00:53:55;91.30;;;75.30;;
14738;SDS011;7461;52.440;13.540;2022-12-04T00:56:23;89.63;;;73.85;;
14738;SDS011;7461;52.440;13.540;2022-12-04T00:58:52;100.05;;;74.32;;
14738;SDS011;7461;52.440;13.540;2022-12-04T01:01:20;89.38;;;73.60;;
14738;SDS011;7461;52.440;13.540;2022-12-04T01:03:47;98.70;;;76.10;;
14738;SDS011;7461;52.440;13.540;2022-12-04T01:06:18;96.30;;;76.45;;
14738;SDS011;7461;52.440;13.540;2022-12-04T01:08:47;98.95;;;79.10;;
14738;SDS011;7461;52.440;13.540;2022-12-04T01:11:15;97.90;;;74.80;;
14738;SDS011;7461;52.440;13.540;2022-12-04T01:13:43;91.75;;;75.97;;
14738;SDS011;7461;52.440;13.540;2022-12-04T01:16:14;111.68;;;78.05;;
14738;SDS011;7461;52.440;13.540;2022-12-04T01:18:42;101.70;;;75.57;;
14738;SDS011;7461;52.440;13.540;2022-12-04T01:21:10;101.13;;;77.40;;
14738;SDS011;7461;52.440;13.540;2022-12-04T01:23:37;97.50;;;77.97;;
14738;SDS011;7461;52.440;13.540;2022-12-04T01:26:04;101.60;;;75.25;;
14738;SDS011;7461;52.440;13.540;2022-12-04T01:28:32;93.90;;;77.80;;
14738;SDS011;7461;52.440;13.540;2022-12-04T01:31:00;101.63;;;76.15;;
14738;SDS011;7461;52.440;13.540;2022-12-04T01:33:28;107.03;;;79.80;;
14738;SDS011;7461;52.440;13.540;2022-12-04T01:35:56;103.05;;;75.80;;
14738;SDS011;7461;52.440;13.540;2022-12-04T01:38:24;97.50;;;78.90;;
14738;SDS011;7461;52.440;13.540;2022-12-04T01:40:51;106.53;;;81.00;;
14738;SDS011;7461;52.440;13.540;2022-12-04T01:43:19;103.05;;;77.97;;
14738;SDS011;7461;52.440;13.540;2022-12-04T01:45:49;101.50;;;83.10;;
14738;SDS011;7461;52.440;13.540;2022-12-04T01:48:20;94.90;;;70.72;;
14738;SDS011;7461;52.440;13.540;2022-12-04T01:50:50;102.28;;;78.85;;
14738;SDS011;7461;52.440;13.540;2022-12-04T01:53:20;97.93;;;79.13;;
14738;SDS011;7461;52.440;13.540;2022-12-04T01:55:47;100.75;;;76.60;;
14738;SDS011;7461;52.440;13.540;2022-12-04T01:58:15;104.25;;;73.82;;
14738;SDS011;7461;52.440;13.540;2022-12-04T02:00:45;102.65;;;75.28;;
14738;SDS011;7461;52.440;13.540;2022-12-04T02:03:16;99.63;;;77.18;;
14738;SDS011;7461;52.440;13.540;2022-12-04T02:05:43;99.55;;;77.07;;
14738;SDS011;7461;52.440;13.540;2022-12-04T02:08:10;104.63;;;75.65;;
14738;SDS011;7461;52.440;13.540;2022-12-04T02:10:39;98.68;;;78.53;;
14738;SDS011;7461;52.440;13.540;2022-12-04T02:13:15;108.35;;;78.97;;
14738;SDS011;7461;52.440;13.540;2022-12-04T02:15:49;100.82;;;78.10;;
14738;SDS011;7461;52.440;13.540;2022-12-04T02:18:23;92.47;;;75.18;;
14738;SDS011;7461;52.440;13.540;2022-12-04T02:20:58;99.38;;;77.28;;
14738;SDS011;7461;52.440;13.540;2022-12-04T02:23:34;100.35;;;79.40;;
14738;SDS011;7461;52.440;13.540;2022-12-04T02:26:18;92.82;;;74.20;;
14738;SDS011;7461;52.440;13.540;2022-12-04T02:29:01;106.40;;;81.75;;
14738;SDS011;7461;52.440;13.540;2022-12-04T02:31:32;98.93;;;76.85;;
14738;SDS011;7461;52.440;13.540;2022-12-04T02:34:04;103.30;;;78.43;;
14738;SDS011;7461;52.440;13.540;2022-12-04T02:36:39;99.28;;;75.68;;
14738;SDS011;7461;52.440;13.540;2022-12-04T02:39:11;106.90;;;82.00;;
14738;SDS011;7461;52.440;13.540;2022-12-04T02:41:45;108.93;;;83.95;;
14738;SDS011;7461;52.440;13.540;2022-12-04T02:44:20;99.72;;;78.45;;
14738;SDS011;7461;52.440;13.540;2022-12-04T02:46:51;102.25;;;79.97;;
14738;SDS011;7461;52.440;13.540;2022-12-04T02:49:24;99.78;;;74.55;;
14738;SDS011;7461;52.440;13.540;2022-12-04T02:51:56;101.90;;;81.30;;
14738;SDS011;7461;52.440;13.540;2022-12-04T02:54:26;106.28;;;80.40;;
14738;SDS011;7461;52.440;13.540;2022-12-04T02:56:59;112.75;;;78.25;;
14738;SDS011;7461;52.440;13.540;2022-12-04T02:59:29;107.32;;;82.05;;
14738;SDS011;7461;52.440;13.540;2022-12-04T03:02:00;102.53;;;78.85;;
14738;SDS011;7461;52.440;13.540;2022-12-04T03:04:33;106.75;;;76.50;;
14738;SDS011;7461;52.440;13.540;2022-12-04T03:07:02;110.90;;;78.53;;
14738;SDS011;7461;52.440;13.540;2022-12-04T03:09:36;111.95;;;76.50;;
14738;SDS011;7461;52.440;13.540;2022-12-04T03:12:09;117.43;;;82.80;;
14738;SDS011;7461;52.440;13.540;2022-12-04T03:14:42;97.97;;;81.35;;
14738;SDS011;7461;52.440;13.540;2022-12-04T03:17:13;91.63;;;73.25;;
14738;SDS011;7461;52.440;13.540;2022-12-04T03:19:44;103.90;;;77.38;;
14738;SDS011;7461;52.440;13.540;2022-12-04T03:22:15;113.55;;;80.82;;
14738;SDS011;7461;52.440;13.540;2022-12-04T03:24:44;106.25;;;75.72;;
14738;SDS011;7461;52.440;13.540;2022-12-04T03:27:16;104.68;;;76.45;;
14738;SDS011;7461;52.440;13.540;2022-12-04T03:29:49;102.57;;;75.30;;
14738;SDS011;7461;52.440;13.540;2022-12-04T03:32:24;102.47;;;74.10;;
14738;SDS011;7461;52.440;13.540;2022-12-04T03:34:55;98.88;;;82.03;;
14738;SDS011;7461;52.440;13.540;2022-12-04T03:37:29;102.32;;;78.45;;
14738;SDS011;7461;52.440;13.540;2022-12-04T03:40:04;102.78;;;75.45;;
14738;SDS011;7461;52.440;13.540;2022-12-04T03:42:37;104.10;;;72.90;;
14738;SDS011;7461;52.440;13.540;2022-12-04T03:45:11;101.90;;;77.88;;
14738;SDS011;7461;52.440;13.540;2022-12-04T03:47:46;99.95;;;78.18;;
14738;SDS011;7461;52.440;13.540;2022-12-04T03:50:21;103.88;;;78.70;;
14738;SDS011;7461;52.440;13.540;2022-12-04T03:52:58;106.25;;;82.32;;
14738;SDS011;7461;52.440;13.540;2022-12-04T03:55:32;94.85;;;76.40;;
14738;SDS011;7461;52.440;13.540;2022-12-04T03:58:05;103.97;;;75.47;;
14738;SDS011;7461;52.440;13.540;2022-12-04T04:00:38;109.47;;;79.97;;
14738;SDS011;7461;52.440;13.540;2022-12-04T04:03:09;115.30;;;78.07;;
14738;SDS011;7461;52.440;13.540;2022-12-04T04:05:40;101.75;;;78.82;;
14738;SDS011;7461;52.440;13.540;2022-12-04T04:08:10;107.38;;;76.18;;
14738;SDS011;7461;52.440;13.540;2022-12-04T04:10:52;96.40;;;76.85;;
14738;SDS011;7461;52.440;13.540;2022-12-04T04:13:24;117.00;;;80.75;;
14738;SDS011;7461;52.440;13.540;2022-12-04T04:16:13;104.57;;;76.28;;
14738;SDS011;7461;52.440;13.540;2022-12-04T04:19:02;104.75;;;75.75;;
14738;SDS011;7461;52.440;13.540;2022-12-04T04:21:47;109.40;;;81.80;;
14738;SDS011;7461;52.440;13.540;2022-12-04T04:24:36;107.30;;;77.97;;
14738;SDS011;7461;52.440;13.540;2022-12-04T04:27:10;101.18;;;77.70;;
14738;SDS011;7461;52.440;13.540;2022-12-04T04:29:38;94.85;;;73.47;;
14738;SDS011;7461;52.440;13.540;2022-12-04T04:32:08;103.88;;;73.85;;
14738;SDS011;7461;52.440;13.540;2022-12-04T04:34:40;90.75;;;72.13;;
14738;SDS011;7461;52.440;13.540;2022-12-04T04:37:15;98.53;;;76.63;;
14738;SDS011;7461;52.440;13.540;2022-12-04T04:39:50;103.20;;;74.63;;
14738;SDS011;7461;52.440;13.540;2022-12-04T04:42:23;102.53;;;75.60;;
14738;SDS011;7461;52.440;13.540;2022-12-04T04:44:53;103.38;;;75.68;;
14738;SDS011;7461;52.440;13.540;2022-12-04T04:47:27;105.00;;;77.75;;
14738;SDS011;7461;52.440;13.540;2022-12-04T04:49:58;103.80;;;75.53;;
14738;SDS011;7461;52.440;13.540;2022-12-04T04:52:28;99.30;;;74.30;;
14738;SDS011;7461;52.440;13.540;2022-12-04T04:54:57;104.53;;;78.55;;
14738;SDS011;7461;52.440;13.540;2022-12-04T04:57:26;91.72;;;74.80;;
14738;SDS011;7461;52.440;13.540;2022-12-04T04:59:54;96.80;;;75.07;;
14738;SDS011;7461;52.440;13.540;2022-12-04T05:02:22;99.10;;;73.88;;
14738;SDS011;7461;52.440;13.540;2022-12-04T05:04:52;96.13;;;73.53;;
14738;SDS011;7461;52.440;13.540;2022-12-04T05:07:19;105.05;;;75.70;;
14738;SDS011;7461;52.440;13.540;2022-12-04T05:09:46;89.07;;;71.18;;
14738;SDS011;7461;52.440;13.540;2022-12-04T05:12:13;93.05;;;72.57;;
14738;SDS011;7461;52.440;13.540;2022-12-04T05:14:40;101.15;;;75.32;;
14738;SDS011;7461;52.440;13.540;2022-12-04T05:17:07;96.35;;;75.90;;
14738;SDS011;7461;52.440;13.540;2022-12-04T05:19:34;94.35;;;75.15;;
14738;SDS011;7461;52.440;13.540;2022-12-04T05:22:22;97.93;;;75.15;;
14738;SDS011;7461;52.440;13.540;2022-12-04T05:24:50;104.70;;;74.97;;
14738;SDS011;7461;52.440;13.540;2022-12-04T05:27:17;103.95;;;76.80;;
14738;SDS011;7461;52.440;13.540;2022-12-04T05:29:44;97.97;;;74.78;;
14738;SDS011;7461;52.440;13.540;2022-12-04T05:32:11;98.25;;;78.97;;
14738;SDS011;7461;52.440;13.540;2022-12-04T05:34:38;99.38;;;77.97;;
14738;SDS011;7461;52.440;13.540;2022-12-04T05:37:05;95.68;;;75.28;;
14738;SDS011;7461;52.440;13.540;2022-12-04T05:39:34;94.60;;;76.57;;
14738;SDS011;7461;52.440;13.540;2022-12-04T05:42:01;91.93;;;72.50;;
14738;SDS011;7461;52.440;13.540;2022-12-04T05:44:28;95.97;;;76.93;;
14738;SDS011;7461;52.440;13.540;2022-12-04T05:46:55;96.25;;;75.53;;
14738;SDS011;7461;52.440;13.540;2022-12-04T05:49:22;99.75;;;73.35;;
14738;SDS011;7461;52.440;13.540;2022-12-04T05:51:49;94.05;;;70.47;;
14738;SDS011;7461;52.440;13.540;2022-12-04T05:54:16;94.38;;;73.75;;
14738;SDS011;7461;52.440;13.540;2022-12-04T05:56:45;98.60;;;73.78;;
14738;SDS011;7461;52.440;13.540;2022-12-04T05:59:12;88.00;;;72.75;;
14738;SDS011;7461;52.440;13.540;2022-12-04T06:01:40;94.88;;;77.25;;
14738;SDS011;7461;52.440;13.540;2022-12-04T06:04:07;92.57;;;69.47;;
14738;SDS011;7461;52.440;13.540;2022-12-04T06:06:34;94.55;;;75.93;;
14738;SDS011;7461;52.440;13.540;2022-12-04T06:09:02;102.35;;;76.72;;
14738;SDS011;7461;52.440;13.540;2022-12-04T06:11:30;101.03;;;77.45;;
14738;SDS011;7461;52.440;13.540;2022-12-04T06:14:00;93.20;;;74.68;;
14738;SDS011;7461;52.440;13.540;2022-12-04T06:16:29;115.47;;;73.35;;
14738;SDS011;7461;52.440;13.540;2022-12-04T06:18:58;97.35;;;75.15;;
14738;SDS011;7461;52.440;13.540;2022-12-04T06:21:27;95.60;;;75.47;;
14738;SDS011;7461;52.440;13.540;2022-12-04T06:23:56;101.20;;;75.85;;
14738;SDS011;7461;52.440;13.540;2022-12-04T06:26:23;88.63;;;69.53;;
14738;SDS011;7461;52.440;13.540;2022-12-04T06:28:51;96.35;;;72.85;;
14738;SDS011;7461;52.440;13.540;2022-12-04T06:31:20;103.22;;;78.20;;
14738;SDS011;7461;52.440;13.540;2022-12-04T06:33:47;98.32;;;76.13;;
14738;SDS011;7461;52.440;13.540;2022-12-04T06:36:15;88.80;;;68.72;;
14738;SDS011;7461;52.440;13.540;2022-12-04T06:38:45;91.13;;;74.70;;
14738;SDS011;7461;52.440;13.540;2022-12-04T06:41:15;85.35;;;69.70;;
14738;SDS011;7461;52.440;13.540;2022-12-04T06:43:43;97.80;;;74.55;;
14738;SDS011;7461;52.440;13.540;2022-12-04T06:46:11;105.13;;;74.80;;
14738;SDS011;7461;52.440;13.540;2022-12-04T06:48:40;93.93;;;73.05;;
14738;SDS011;7461;52.440;13.540;2022-12-04T06:51:09;98.78;;;72.93;;
14738;SDS011;7461;52.440;13.540;2022-12-04T06:53:37;93.82;;;71.55;;
14738;SDS011;7461;52.440;13.540;2022-12-04T06:56:05;94.70;;;72.03;;
14738;SDS011;7461;52.440;13.540;2022-12-04T06:58:37;92.32;;;67.28;;
14738;SDS011;7461;52.440;13.540;2022-12-04T07:01:05;101.95;;;74.55;;
14738;SDS011;7461;52.440;13.540;2022-12-04T07:03:32;84.93;;;69.97;;
14738;SDS011;7461;52.440;13.540;2022-12-04T07:06:09;102.88;;;76.72;;
14738;SDS011;7461;52.440;13.540;2022-12-04T07:08:41;85.55;;;69.85;;
14738;SDS011;7461;52.440;13.540;2022-12-04T07:11:09;90.90;;;73.35;;
14738;SDS011;7461;52.440;13.540;2022-12-04T07:13:36;104.13;;;74.65;;
14738;SDS011;7461;52.440;13.540;2022-12-04T07:16:04;96.35;;;67.72;;
14738;SDS011;7461;52.440;13.540;2022-12-04T07:18:33;105.45;;;77.70;;
14738;SDS011;7461;52.440;13.540;2022-12-04T07:21:03;94.43;;;69.30;;
14738;SDS011;7461;52.440;13.540;2022-12-04T07:23:32;90.53;;;71.28;;
14738;SDS011;7461;52.440;13.540;2022-12-04T07:26:02;83.35;;;70.72;;
14738;SDS011;7461;52.440;13.540;2022-12-04T07:28:30;100.93;;;71.45;;
14738;SDS011;7461;52.440;13.540;2022-12-04T07:30:57;107.13;;;73.82;;
14738;SDS011;7461;52.440;13.540;2022-12-04T07:33:24;101.47;;;76.70;;
14738;SDS011;7461;52.440;13.540;2022-12-04T07:35:54;99.25;;;73.40;;
14738;SDS011;7461;52.440;13.540;2022-12-04T07:38:21;101.78;;;70.85;;
14738;SDS011;7461;52.440;13.540;2022-12-04T07:40:50;91.45;;;72.60;;
14738;SDS011;7461;52.440;13.540;2022-12-04T07:43:17;98.53;;;69.72;;
14738;SDS011;7461;52.440;13.540;2022-12-04T07:45:44;94.72;;;71.63;;
14738;SDS011;7461;52.440;13.540;2022-12-04T07:48:10;105.32;;;77.32;;
14738;SDS011;7461;52.440;13.540;2022-12-04T07:50:37;91.10;;;67.30;;
14738;SDS011;7461;52.440;13.540;2022-12-04T07:53:04;105.13;;;74.57;;
14738;SDS011;7461;52.440;13.540;2022-12-04T07:55:31;91.00;;;70.53;;
14738;SDS011;7461;52.440;13.540;2022-12-04T07:58:00;95.35;;;70.82;;
14738;SDS011;7461;52.440;13.540;2022-12-04T08:00:27;91.53;;;68.72;;
14738;SDS011;7461;52.440;13.540;2022-12-04T08:02:54;91.43;;;68.75;;
14738;SDS011;7461;52.440;13.540;2022-12-04T08:05:21;98.45;;;68.97;;
14738;SDS011;7461;52.440;13.540;2022-12-04T08:07:48;87.43;;;71.28;;
14738;SDS011;7461;52.440;13.540;2022-12-04T08:10:15;96.38;;;70.80;;
14738;SDS011;7461;52.440;13.540;2022-12-04T08:12:43;85.38;;;66.78;;
14738;SDS011;7461;52.440;13.540;2022-12-04T08:15:11;86.47;;;66.30;;
14738;SDS011;7461;52.440;13.540;2022-12-04T08:17:38;92.75;;;69.25;;
14738;SDS011;7461;52.440;13.540;2022-12-04T08:20:08;93.43;;;72.05;;
14738;SDS011;7461;52.440;13.540;2022-12-04T08:22:36;108.28;;;74.22;;
14738;SDS011;7461;52.440;13.540;2022-12-04T08:25:03;101.18;;;74.15;;
14738;SDS011;7461;52.440;13.540;2022-12-04T08:27:30;99.47;;;70.78;;
14738;SDS011;7461;52.440;13.540;2022-12-04T08:29:57;102.47;;;69.15;;
14738;SDS011;7461;52.440;13.540;2022-12-04T08:32:26;91.00;;;69.43;;
14738;SDS011;7461;52.440;13.540;2022-12-04T08:34:53;99.15;;;68.57;;
14738;SDS011;7461;52.440;13.540;2022-12-04T08:37:20;92.28;;;72.30;;
14738;SDS011;7461;52.440;13.540;2022-12-04T08:39:47;95.78;;;71.65;;
14738;SDS011;7461;52.440;13.540;2022-12-04T08:42:14;98.47;;;72.15;;
14738;SDS011;7461;52.440;13.540;2022-12-04T08:44:41;109.57;;;71.72;;
14738;SDS011;7461;52.440;13.540;2022-12-04T08:47:07;93.45;;;71.18;;
14738;SDS011;7461;52.440;13.540;2022-12-04T08:49:36;91.25;;;67.47;;
14738;SDS011;7461;52.440;13.540;2022-12-04T08:52:03;98.22;;;70.60;;
14738;SDS011;7461;52.440;13.540;2022-12-04T08:54:30;98.22;;;71.40;;
14738;SDS011;7461;52.440;13.540;2022-12-04T08:56:57;110.00;;;72.90;;
14738;SDS011;7461;52.440;13.540;2022-12-04T08:59:24;106.05;;;74.07;;
14738;SDS011;7461;52.440;13.540;2022-12-04T09:01:52;103.57;;;74.15;;
14738;SDS011;7461;52.440;13.540;2022-12-04T09:04:19;99.15;;;69.90;;
14738;SDS011;7461;52.440;13.540;2022-12-04T09:06:47;93.28;;;70.25;;
14738;SDS011;7461;52.440;13.540;2022-12-04T09:09:14;95.95;;;69.95;;
14738;SDS011;7461;52.440;13.540;2022-12-04T09:11:43;91.05;;;69.10;;
14738;SDS011;7461;52.440;13.540;2022-12-04T09:14:10;86.38;;;63.80;;
14738;SDS011;7461;52.440;13.540;2022-12-04T09:16:38;107.13;;;73.63;;
14738;SDS011;7461;52.440;13.540;2022-12-04T09:19:04;92.25;;;66.60;;
14738;SDS011;7461;52.440;13.540;2022-12-04T09:21:31;88.97;;;68.78;;
14738;SDS011;7461;52.440;13.540;2022-12-04T09:24:00;90.88;;;67.45;;
14738;SDS011;7461;52.440;13.540;2022-12-04T09:26:28;94.85;;;67.32;;
14738;SDS011;7461;52.440;13.540;2022-12-04T09:28:57;91.90;;;69.88;;
14738;SDS011;7461;52.440;13.540;2022-12-04T09:31:25;84.35;;;64.30;;
14738;SDS011;7461;52.440;13.540;2022-12-04T09:33:52;84.82;;;69.53;;
14738;SDS011;7461;52.440;13.540;2022-12-04T09:36:20;92.53;;;68.90;;
14738;SDS011;7461;52.440;13.540;2022-12-04T09:38:47;84.45;;;66.85;;
14738;SDS011;7461;52.440;13.540;2022-12-04T09:41:24;81.88;;;62.30;;
14738;SDS011;7461;52.440;13.540;2022-12-04T09:44:06;91.95;;;63.45;;
14738;SDS011;7461;52.440;13.540;2022-12-04T09:46:40;88.95;;;64.82;;
14738;SDS011;7461;52.440;13.540;2022-12-04T09:49:13;100.20;;;68.78;;
14738;SDS011;7461;52.440;13.540;2022-12-04T09:51:42;82.25;;;63.33;;
14738;SDS011;7461;52.440;13.540;2022-12-04T09:54:11;87.22;;;65.32;;
14738;SDS011;7461;52.440;13.540;2022-12-04T09:56:43;91.22;;;68.63;;
14738;SDS011;7461;52.440;13.540;2022-12-04T09:59:18;91.35;;;65.72;;
14738;SDS011;7461;52.440;13.540;2022-12-04T10:01:50;85.07;;;66.05;;
14738;SDS011;7461;52.440;13.540;2022-12-04T10:04:21;76.80;;;62.65;;
14738;SDS011;7461;52.440;13.540;2022-12-04T10:06:50;83.10;;;64.03;;
14738;SDS011;7461;52.440;13.540;2022-12-04T10:09:25;90.55;;;67.35;;
14738;SDS011;7461;52.440;13.540;2022-12-04T10:11:59;87.70;;;64.88;;
14738;SDS011;7461;52.440;13.540;2022-12-04T10:14:41;84.88;;;66.05;;
14738;SDS011;7461;52.440;13.540;2022-12-04T10:17:26;82.88;;;63.90;;
14738;SDS011;7461;52.440;13.540;2022-12-04T10:20:07;77.25;;;63.65;;
14738;SDS011;7461;52.440;13.540;2022-12-04T10:22:52;83.80;;;58.50;;
14738;SDS011;7461;52.440;13.540;2022-12-04T10:25:27;80.60;;;60.30;;
14738;SDS011;7461;52.440;13.540;2022-12-04T10:28:00;87.78;;;61.85;;
14738;SDS011;7461;52.440;13.540;2022-12-04T10:30:33;76.75;;;61.15;;
14738;SDS011;7461;52.440;13.540;2022-12-04T10:33:04;77.90;;;61.72;;
14738;SDS011;7461;52.440;13.540;2022-12-04T10:35:41;81.97;;;62.47;;
14738;SDS011;7461;52.440;13.540;2022-12-04T10:38:22;84.72;;;62.95;;
14738;SDS011;7461;52.440;13.540;2022-12-04T10:40:57;70.78;;;57.40;;
14738;SDS011;7461;52.440;13.540;2022-12-04T10:43:30;80.88;;;62.08;;
14738;SDS011;7461;52.440;13.540;2022-12-04T10:46:03;72.88;;;60.08;;
14738;SDS011;7461;52.440;13.540;2022-12-04T10:48:32;80.05;;;64.13;;
14738;SDS011;7461;52.440;13.540;2022-12-04T10:51:02;75.72;;;60.33;;
14738;SDS011;7461;52.440;13.540;2022-12-04T10:53:30;82.65;;;63.67;;
14738;SDS011;7461;52.440;13.540;2022-12-04T10:56:07;72.38;;;56.65;;
14738;SDS011;7461;52.440;13.540;2022-12-04T10:58:37;79.18;;;58.92;;
14738;SDS011;7461;52.440;13.540;2022-12-04T11:01:05;73.32;;;62.30;;
14738;SDS011;7461;52.440;13.540;2022-12-04T11:03:35;84.20;;;63.33;;
14738;SDS011;7461;52.440;13.540;2022-12-04T11:06:02;88.00;;;59.63;;
14738;SDS011;7461;52.440;13.540;2022-12-04T11:08:32;73.95;;;60.17;;
14738;SDS011;7461;52.440;13.540;2022-12-04T11:11:03;73.60;;;56.70;;
14738;SDS011;7461;52.440;13.540;2022-12-04T11:13:36;74.97;;;58.95;;
14738;SDS011;7461;52.440;13.540;2022-12-04T11:16:05;71.72;;;58.30;;
14738;SDS011;7461;52.440;13.540;2022-12-04T11:18:34;73.28;;;58.13;;
14738;SDS011;7461;52.440;13.540;2022-12-04T11:21:13;74.50;;;58.05;;
14738;SDS011;7461;52.440;13.540;2022-12-04T11:23:44;70.18;;;56.92;;
14738;SDS011;7461;52.440;13.540;2022-12-04T11:26:13;70.85;;;57.22;;
14738;SDS011;7461;52.440;13.540;2022-12-04T11:28:44;71.32;;;55.95;;
14738;SDS011;7461;52.440;13.540;2022-12-04T11:31:17;69.72;;;56.67;;
14738;SDS011;7461;52.440;13.540;2022-12-04T11:33:48;66.72;;;59.38;;
14738;SDS011;7461;52.440;13.540;2022-12-04T11:36:18;65.82;;;55.50;;
14738;SDS011;7461;52.440;13.540;2022-12-04T11:39:03;76.00;;;59.17;;
14738;SDS011;7461;52.440;13.540;2022-12-04T11:41:32;69.35;;;56.55;;
14738;SDS011;7461;52.440;13.540;2022-12-04T11:44:01;70.93;;;55.20;;
14738;SDS011;7461;52.440;13.540;2022-12-04T11:46:31;68.35;;;56.83;;
14738;SDS011;7461;52.440;13.540;2022-12-04T11:48:58;72.65;;;59.25;;
14738;SDS011;7461;52.440;13.540;2022-12-04T11:51:37;78.47;;;56.60;;
14738;SDS011;7461;52.440;13.540;2022-12-04T11:54:17;68.25;;;54.05;;
14738;SDS011;7461;52.440;13.540;2022-12-04T11:56:54;71.55;;;59.05;;
14738;SDS011;7461;52.440;13.540;2022-12-04T11:59:44;68.75;;;55.85;;
14738;SDS011;7461;52.440;13.540;2022-12-04T12:02:29;70.55;;;60.53;;
14738;SDS011;7461;52.440;13.540;2022-12-04T12:05:17;70.43;;;55.28;;
14738;SDS011;7461;52.440;13.540;2022-12-04T12:07:56;63.47;;;52.47;;
14738;SDS011;7461;52.440;13.540;2022-12-04T12:10:30;63.42;;;54.85;;
14738;SDS011;7461;52.440;13.540;2022-12-04T12:13:03;79.68;;;59.15;;
14738;SDS011;7461;52.440;13.540;2022-12-04T12:15:39;64.50;;;55.10;;
14738;SDS011;7461;52.440;13.540;2022-12-04T12:18:19;75.28;;;58.85;;
14738;SDS011;7461;52.440;13.540;2022-12-04T12:20:57;68.82;;;55.95;;
14738;SDS011;7461;52.440;13.540;2022-12-04T12:23:44;67.30;;;54.35;;
14738;SDS011;7461;52.440;13.540;2022-12-04T12:26:20;70.65;;;56.10;;
14738;SDS011;7461;52.440;13.540;2022-12-04T12:29:07;73.85;;;58.17;;
14738;SDS011;7461;52.440;13.540;2022-12-04T12:31:47;64.63;;;56.65;;
14738;SDS011;7461;52.440;13.540;2022-12-04T12:34:29;71.68;;;53.67;;
14738;SDS011;7461;52.440;13.540;2022-12-04T12:37:04;66.80;;;55.53;;
14738;SDS011;7461;52.440;13.540;2022-12-04T12:39:38;63.50;;;52.22;;
14738;SDS011;7461;52.440;13.540;2022-12-04T12:42:06;74.82;;;59.67;;
14738;SDS011;7461;52.440;13.540;2022-12-04T12:44:42;61.83;;;55.13;;
14738;SDS011;7461;52.440;13.540;2022-12-04T12:47:17;69.93;;;57.55;;
14738;SDS011;7461;52.440;13.540;2022-12-04T12:49:48;76.30;;;59.88;;
14738;SDS011;7461;52.440;13.540;2022-12-04T12:52:23;72.15;;;59.15;;
14738;SDS011;7461;52.440;13.540;2022-12-04T12:54:57;71.15;;;56.28;;
14738;SDS011;7461;52.440;13.540;2022-12-04T12:57:28;73.00;;;59.83;;
14738;SDS011;7461;52.440;13.540;2022-12-04T13:00:03;63.03;;;54.22;;
14738;SDS011;7461;52.440;13.540;2022-12-04T13:02:34;73.35;;;55.10;;
14738;SDS011;7461;52.440;13.540;2022-12-04T13:05:08;81.75;;;58.58;;
14738;SDS011;7461;52.440;13.540;2022-12-04T13:07:41;67.03;;;55.47;;
14738;SDS011;7461;52.440;13.540;2022-12-04T13:10:14;73.85;;;57.63;;
14738;SDS011;7461;52.440;13.540;2022-12-04T13:12:45;75.55;;;57.60;;
14738;SDS011;7461;52.440;13.540;2022-12-04T13:15:16;72.05;;;57.33;;
14738;SDS011;7461;52.440;13.540;2022-12-04T13:17:47;79.88;;;53.67;;
14738;SDS011;7461;52.440;13.540;2022-12-04T13:20:17;70.72;;;55.53;;
14738;SDS011;7461;52.440;13.540;2022-12-04T13:22:51;67.43;;;55.17;;
14738;SDS011;7461;52.440;13.540;2022-12-04T13:25:39;72.70;;;57.78;;
14738;SDS011;7461;52.440;13.540;2022-12-04T13:28:20;79.32;;;58.05;;
14738;SDS011;7461;52.440;13.540;2022-12-04T13:30:56;86.00;;;60.63;;
14738;SDS011;7461;52.440;13.540;2022-12-04T13:33:39;72.25;;;55.70;;
14738;SDS011;7461;52.440;13.540;2022-12-04T13:36:27;72.57;;;55.78;;
14738;SDS011;7461;52.440;13.540;2022-12-04T13:39:07;84.00;;;56.95;;
14738;SDS011;7461;52.440;13.540;2022-12-04T13:42:17;79.18;;;62.42;;
14738;SDS011;7461;52.440;13.540;2022-12-04T13:44:52;86.53;;;63.55;;
14738;SDS011;7461;52.440;13.540;2022-12-04T13:47:25;91.63;;;66.38;;
14738;SDS011;7461;52.440;13.540;2022-12-04T13:50:06;93.15;;;63.08;;
14738;SDS011;7461;52.440;13.540;2022-12-04T13:52:50;75.13;;;55.05;;
14738;SDS011;7461;52.440;13.540;2022-12-04T13:55:21;91.05;;;64.70;;
14738;SDS011;7461;52.440;13.540;2022-12-04T13:57:54;92.03;;;61.10;;
14738;SDS011;7461;52.440;13.540;2022-12-04T14:00:24;84.88;;;60.58;;
14738;SDS011;7461;52.440;13.540;2022-12-04T14:02:54;101.50;;;67.03;;
14738;SDS011;7461;52.440;13.540;2022-12-04T14:05:28;96.80;;;66.00;;
14738;SDS011;7461;52.440;13.540;2022-12-04T14:07:59;98.10;;;65.80;;
14738;SDS011;7461;52.440;13.540;2022-12-04T14:10:29;84.50;;;62.67;;
14738;SDS011;7461;52.440;13.540;2022-12-04T14:13:01;91.38;;;61.83;;
14738;SDS011;7461;52.440;13.540;2022-12-04T14:15:31;88.00;;;63.95;;
14738;SDS011;7461;52.440;13.540;2022-12-04T14:18:02;88.13;;;63.85;;
14738;SDS011;7461;52.440;13.540;2022-12-04T14:20:33;89.13;;;62.95;;
14738;SDS011;7461;52.440;13.540;2022-12-04T14:23:07;101.82;;;66.00;;
14738;SDS011;7461;52.440;13.540;2022-12-04T14:25:36;89.50;;;66.70;;
14738;SDS011;7461;52.440;13.540;2022-12-04T14:28:11;92.57;;;62.50;;
14738;SDS011;7461;52.440;13.540;2022-12-04T14:30:55;102.38;;;68.78;;
14738;SDS011;7461;52.440;13.540;2022-12-04T14:33:28;104.97;;;67.38;;
14738;SDS011;7461;52.440;13.540;2022-12-04T14:36:00;99.80;;;67.75;;
14738;SDS011;7461;52.440;13.540;2022-12-04T14:38:30;102.93;;;69.72;;
14738;SDS011;7461;52.440;13.540;2022-12-04T14:40:58;97.43;;;63.67;;
14738;SDS011;7461;52.440;13.540;2022-12-04T14:43:26;106.70;;;71.40;;